Time;durP1;ratioP1;P1;durP2;ratioP2;P2;SDS_P1;SDS_P2;PMS_P1;PMS_P2;Temp;Humidity;BMP_temperature;BMP_pressure;BME280_temperature;BME280_humidity;BME280_pressure;Samples;Min_cycle;Max_cycle;Signal;HPM_P1;HPM_P2
2023/11/09 00:00:12;;;;;;;18.17;10.85;;;;;;;6.89;100.00;100562.47;5091071;28;20469;-45
2023/11/09 00:02:41;;;;;;;18.30;10.40;;;;;;;6.89;100.00;100562.47;5091041;28;20188;-43
2023/11/09 00:05:11;;;;;;;23.23;11.35;;;;;;;6.94;100.00;100561.41;5090986;28;20071;-46
2023/11/09 00:07:39;;;;;;;22.83;11.02;;;;;;;6.87;100.00;100561.66;5090868;28;20441;-43
2023/11/09 00:10:10;;;;;;;22.50;11.38;;;;;;;6.71;100.00;100555.22;5091717;28;20139;-42
2023/11/09 00:12:40;;;;;;;24.17;12.82;;;;;;;6.67;100.00;100558.94;5094611;28;20044;-45
2023/11/09 00:15:09;;;;;;;23.75;12.65;;;;;;;6.69;100.00;100553.56;5095249;28;20048;-43
2023/11/09 00:17:37;;;;;;;22.25;12.23;;;;;;;6.77;100.00;100564.75;5095015;28;20079;-44
2023/11/09 00:20:10;;;;;;;24.85;13.45;;;;;;;6.71;100.00;100557.88;5094434;28;20048;-44
2023/11/09 00:22:40;;;;;;;23.88;13.57;;;;;;;6.67;100.00;100553.66;5094062;28;20485;-45
2023/11/09 00:25:08;;;;;;;25.75;13.48;;;;;;;6.61;100.00;100556.53;5094207;28;20553;-43
2023/11/09 00:27:36;;;;;;;25.42;13.10;;;;;;;6.67;100.00;100556.28;5094430;28;20088;-44
2023/11/09 00:30:07;;;;;;;24.58;13.18;;;;;;;6.77;100.00;100549.69;5094415;28;20048;-44
2023/11/09 00:32:36;;;;;;;27.75;14.18;;;;;;;6.66;100.00;100548.38;5094298;28;20485;-45
2023/11/09 00:35:07;;;;;;;20.60;12.50;;;;;;;6.75;100.00;100546.22;5094550;28;20044;-43
2023/11/09 00:37:37;;;;;;;21.67;13.38;;;;;;;6.76;100.00;100541.81;5094170;28;20090;-42
2023/11/09 00:40:10;;;;;;;26.30;14.00;;;;;;;6.75;100.00;100537.41;5094045;28;20041;-45
2023/11/09 00:42:39;;;;;;;23.90;14.25;;;;;;;6.72;100.00;100534.88;5093884;28;20048;-45
2023/11/09 00:45:09;;;;;;;24.08;14.20;;;;;;;6.53;100.00;100537.41;5094137;28;20088;-42
2023/11/09 00:47:37;;;;;;;26.08;13.80;;;;;;;6.59;100.00;100532.72;5093889;28;20067;-45
2023/11/09 00:50:07;;;;;;;29.75;14.10;;;;;;;6.48;100.00;100534.94;5094235;28;20036;-43
2023/11/09 00:52:35;;;;;;;26.90;14.98;;;;;;;6.50;100.00;100540.19;5093799;28;20048;-44
2023/11/09 00:55:03;;;;;;;25.15;14.85;;;;;;;6.49;100.00;100538.44;5093954;28;20044;-44
2023/11/09 00:57:33;;;;;;;30.67;15.13;;;;;;;6.39;100.00;100542.38;5093945;28;20156;-43
2023/11/09 01:00:02;;;;;;;29.17;15.73;;;;;;;6.20;100.00;100543.06;5093662;28;20504;-44
2023/11/09 01:02:37;;;;;;;26.15;14.68;;;;;;;6.35;100.00;100552.22;5093693;28;20189;-44
2023/11/09 01:05:09;;;;;;;32.65;15.65;;;;;;;6.31;100.00;100548.81;5093281;28;20101;-45
2023/11/09 01:07:38;;;;;;;25.27;15.07;;;;;;;6.27;100.00;100552.53;5093880;28;20059;-44
2023/11/09 01:10:07;;;;;;;29.40;15.85;;;;;;;6.14;100.00;100553.03;5093575;28;20072;-44
2023/11/09 01:12:37;;;;;;;24.20;14.52;;;;;;;6.05;100.00;100548.06;5093546;28;20048;-43
2023/11/09 01:15:06;;;;;;;24.60;14.32;;;;;;;5.87;100.00;100544.28;5093525;28;20113;-45
2023/11/09 01:17:37;;;;;;;29.23;14.57;;;;;;;5.80;100.00;100556.03;5093173;28;20488;-43
2023/11/09 01:20:08;;;;;;;27.85;14.65;;;;;;;5.84;100.00;100549.69;5093389;28;20079;-43
2023/11/09 01:22:36;;;;;;;29.65;14.80;;;;;;;5.83;100.00;100548.81;5092198;28;20055;-43
2023/11/09 01:25:07;;;;;;;28.77;15.52;;;;;;;5.83;100.00;100553.25;5093262;28;20370;-43
2023/11/09 01:27:36;;;;;;;28.67;15.35;;;;;;;5.85;100.00;100546.97;5093150;28;20086;-44
2023/11/09 01:30:05;;;;;;;25.92;14.75;;;;;;;5.82;100.00;100556.81;5093014;28;20087;-43
2023/11/09 01:32:33;;;;;;;28.65;15.23;;;;;;;5.76;100.00;100555.25;5092660;28;20044;-44
2023/11/09 01:35:02;;;;;;;30.08;14.88;;;;;;;5.85;100.00;100551.41;5093156;28;20127;-43
2023/11/09 01:37:31;;;;;;;28.88;14.48;;;;;;;5.95;100.00;100548.41;5092876;28;20134;-44
2023/11/09 01:39:59;;;;;;;28.02;15.25;;;;;;;5.93;100.00;100546.75;5092733;28;20044;-43
2023/11/09 01:42:27;;;;;;;28.15;15.02;;;;;;;6.00;100.00;100546.47;5092922;28;20614;-43
2023/11/09 01:44:57;;;;;;;32.85;16.08;;;;;;;5.95;100.00;100542.25;5092749;28;20072;-44
2023/11/09 01:47:25;;;;;;;27.58;15.55;;;;;;;6.05;100.00;100543.63;5092924;28;20056;-44
2023/11/09 01:49:54;;;;;;;29.42;15.93;;;;;;;6.03;100.00;100548.13;5092609;28;20083;-44
2023/11/09 01:52:22;;;;;;;29.67;16.13;;;;;;;6.03;100.00;100546.34;5092637;28;20131;-45
2023/11/09 01:54:50;;;;;;;31.08;15.82;;;;;;;5.96;100.00;100544.84;5092521;28;20052;-44
2023/11/09 01:57:20;;;;;;;32.78;16.80;;;;;;;5.97;100.00;100551.00;5092682;28;20051;-44
2023/11/09 01:59:51;;;;;;;32.50;17.05;;;;;;;5.46;100.00;100538.66;5092419;28;20056;-43
2023/11/09 02:02:22;;;;;;;34.78;17.08;;;;;;;5.21;100.00;100543.94;5092401;28;20059;-46
2023/11/09 02:04:50;;;;;;;25.88;15.25;;;;;;;5.22;100.00;100550.09;5092327;28;20052;-44
2023/11/09 02:07:20;;;;;;;29.00;16.25;;;;;;;5.29;100.00;100551.59;5092337;28;20044;-43
2023/11/09 02:09:49;;;;;;;29.30;16.52;;;;;;;5.24;100.00;100538.53;5092178;28;20135;-43
2023/11/09 02:12:18;;;;;;;27.65;15.88;;;;;;;5.46;100.00;100543.97;5092049;28;20411;-44
2023/11/09 02:14:46;;;;;;;26.92;15.63;;;;;;;5.41;100.00;100537.97;5092253;28;20054;-42
2023/11/09 02:17:15;;;;;;;31.92;15.57;;;;;;;5.29;100.00;100538.38;5091936;28;20413;-43
2023/11/09 02:19:45;;;;;;;26.67;15.20;;;;;;;5.35;100.00;100544.31;5092354;28;20476;-45
2023/11/09 02:22:14;;;;;;;24.58;14.13;;;;;;;5.31;100.00;100544.50;5092124;28;20055;-43
2023/11/09 02:24:47;;;;;;;26.50;14.00;;;;;;;5.35;100.00;100546.97;5092168;28;20048;-44
2023/11/09 02:27:18;;;;;;;24.35;13.68;;;;;;;5.40;100.00;100539.75;5092307;28;20044;-44
2023/11/09 02:29:46;;;;;;;24.08;13.90;;;;;;;5.35;100.00;100535.53;5092545;28;20051;-43
2023/11/09 02:32:15;;;;;;;22.25;12.88;;;;;;;5.32;100.00;100531.22;5091892;28;20040;-43
2023/11/09 02:34:43;;;;;;;23.88;13.55;;;;;;;5.32;100.00;100525.06;5091992;28;20148;-43
2023/11/09 02:37:12;;;;;;;22.05;12.82;;;;;;;5.39;100.00;100522.13;5091605;28;20044;-43
2023/11/09 02:39:40;;;;;;;24.60;13.88;;;;;;;5.28;100.00;100528.72;5091605;28;20135;-43
2023/11/09 02:42:11;;;;;;;24.17;13.07;;;;;;;5.27;100.00;100532.28;5091924;28;20048;-44
2023/11/09 02:44:40;;;;;;;26.23;13.55;;;;;;;5.38;100.00;100535.41;5091523;28;20105;-43
2023/11/09 02:47:08;;;;;;;25.55;13.77;;;;;;;5.39;100.00;100539.78;5091486;28;20123;-42
2023/11/09 02:49:36;;;;;;;24.58;13.07;;;;;;;5.48;100.00;100542.13;5091414;28;20048;-43
2023/11/09 02:52:05;;;;;;;22.80;13.30;;;;;;;5.48;100.00;100544.75;5091215;28;20642;-45
2023/11/09 02:54:34;;;;;;;23.35;12.80;;;;;;;5.49;100.00;100535.91;5091617;28;20048;-44
2023/11/09 02:57:03;;;;;;;23.27;12.95;;;;;;;5.53;100.00;100539.31;5091322;28;20044;-45
2023/11/09 02:59:33;;;;;;;23.52;12.18;;;;;;;5.57;100.00;100535.63;5091768;28;20136;-43
2023/11/09 03:02:02;;;;;;;21.85;12.20;;;;;;;5.66;100.00;100536.19;5091103;28;20040;-43
2023/11/09 03:04:30;;;;;;;20.90;12.52;;;;;;;5.70;100.00;100532.53;5090815;28;20048;-43
2023/11/09 03:06:58;;;;;;;23.45;12.15;;;;;;;5.71;100.00;100539.53;5091185;28;20056;-44
2023/11/09 03:09:27;;;;;;;21.67;12.65;;;;;;;5.59;100.00;100523.22;5091346;28;20102;-43
2023/11/09 03:11:55;;;;;;;20.73;11.57;;;;;;;5.57;100.00;100536.50;5091174;28;20054;-43
2023/11/09 03:14:23;;;;;;;20.02;11.80;;;;;;;5.55;100.00;100538.34;5091031;28;20420;-42
2023/11/09 03:16:53;;;;;;;19.42;11.15;;;;;;;5.60;100.00;100540.84;5091173;28;20062;-43
2023/11/09 03:19:21;;;;;;;18.70;11.95;;;;;;;5.57;100.00;100533.84;5091311;28;20052;-43
2023/11/09 03:21:49;;;;;;;22.02;11.45;;;;;;;5.48;100.00;100531.53;5091200;28;20048;-44
2023/11/09 03:24:19;;;;;;;19.83;11.65;;;;;;;5.51;100.00;100533.22;5091148;28;20477;-44
2023/11/09 03:26:47;;;;;;;20.35;10.98;;;;;;;5.51;100.00;100531.44;5091437;28;20096;-43
2023/11/09 03:29:15;;;;;;;21.05;11.35;;;;;;;5.43;100.00;100530.84;5090966;28;20131;-43
2023/11/09 03:31:43;;;;;;;19.88;11.50;;;;;;;5.52;100.00;100534.94;5090778;28;20075;-44
2023/11/09 03:34:13;;;;;;;20.38;11.25;;;;;;;5.42;100.00;100535.28;5091009;28;20120;-43
2023/11/09 03:36:42;;;;;;;19.67;10.90;;;;;;;5.51;100.00;100530.59;5090760;28;20504;-44
2023/11/09 03:39:10;;;;;;;21.02;11.10;;;;;;;5.45;100.00;100526.34;5090907;28;20047;-45
2023/11/09 03:41:38;;;;;;;18.15;10.85;;;;;;;5.42;100.00;100526.47;5090989;28;20051;-43
2023/11/09 03:44:07;;;;;;;18.33;10.60;;;;;;;5.40;100.00;100530.94;5090719;28;20041;-43
2023/11/09 03:46:35;;;;;;;20.67;12.18;;;;;;;5.45;100.00;100526.34;5094358;28;20044;-43
2023/11/09 03:49:03;;;;;;;21.73;11.38;;;;;;;5.35;100.00;100528.44;5094878;28;20044;-43
2023/11/09 03:51:33;;;;;;;23.40;10.88;;;;;;;5.13;100.00;100517.75;5094679;28;20143;-42
2023/11/09 03:54:03;;;;;;;18.08;10.82;;;;;;;5.26;100.00;100519.97;5094608;28;20148;-44
2023/11/09 03:56:31;;;;;;;19.88;11.10;;;;;;;5.37;100.00;100515.16;5094434;28;20489;-43
2023/11/09 03:59:00;;;;;;;22.20;10.68;;;;;;;5.35;100.00;100511.72;5094797;28;20382;-43
2023/11/09 04:01:29;;;;;;;17.73;10.40;;;;;;;5.31;100.00;100512.75;5094665;28;20047;-45
2023/11/09 04:03:57;;;;;;;19.95;10.57;;;;;;;5.26;100.00;100515.53;5094262;28;20603;-43
2023/11/09 04:06:26;;;;;;;19.42;11.02;;;;;;;5.21;100.00;100516.59;5094323;28;20050;-45
2023/11/09 04:08:55;;;;;;;19.83;10.93;;;;;;;5.28;100.00;100507.56;5094296;28;20080;-43
2023/11/09 04:11:24;;;;;;;18.60;11.20;;;;;;;5.40;100.00;100515.94;5094261;28;20126;-43
2023/11/09 04:13:52;;;;;;;19.40;10.80;;;;;;;5.39;100.00;100511.53;5094208;28;20143;-43
2023/11/09 04:16:21;;;;;;;18.73;10.82;;;;;;;5.34;100.00;100513.50;5094354;28;20098;-42
2023/11/09 04:18:50;;;;;;;19.83;11.02;;;;;;;5.37;100.00;100512.53;5094438;28;20050;-44
2023/11/09 04:21:18;;;;;;;17.95;10.48;;;;;;;5.38;100.00;100508.97;5094133;28;20130;-43
2023/11/09 04:23:48;;;;;;;19.75;11.00;;;;;;;5.36;100.00;100508.16;5094048;28;20055;-44
2023/11/09 04:26:22;;;;;;;15.85;10.60;;;;;;;5.35;100.00;100509.06;5094236;28;20080;-44
2023/11/09 04:28:51;;;;;;;17.38;10.32;;;;;;;5.35;100.00;100509.94;5094406;28;20047;-44
2023/11/09 04:31:20;;;;;;;18.15;10.95;;;;;;;5.33;100.00;100505.63;5094304;28;20066;-44
2023/11/09 04:33:49;;;;;;;19.73;10.30;;;;;;;5.13;100.00;100508.94;5094009;28;20489;-42
2023/11/09 04:36:17;;;;;;;18.15;10.02;;;;;;;5.11;100.00;100506.34;5094092;28;20044;-44
2023/11/09 04:38:46;;;;;;;20.85;10.02;;;;;;;5.11;100.00;100508.97;5094022;28;20109;-44
2023/11/09 04:41:16;;;;;;;17.60;9.85;;;;;;;5.09;100.00;100505.53;5094065;28;20040;-45
2023/11/09 04:43:46;;;;;;;18.27;10.63;;;;;;;5.23;100.00;100512.16;5094031;28;20147;-43
2023/11/09 04:46:17;;;;;;;19.35;10.00;;;;;;;5.29;100.00;100507.50;5093943;28;20043;-45
2023/11/09 04:48:47;;;;;;;18.55;10.43;;;;;;;5.36;100.00;100509.03;5093768;28;20044;-45
2023/11/09 04:51:22;;;;;;;19.20;10.77;;;;;;;5.36;100.00;100516.09;5093842;28;20113;-45
2023/11/09 04:53:52;;;;;;;17.65;10.57;;;;;;;5.37;100.00;100513.38;5093969;28;20055;-44
2023/11/09 04:56:38;;;;;;;16.45;10.07;;;;;;;5.32;100.00;100509.19;5093772;28;20052;-43
2023/11/09 05:07:28;;;;;;;17.63;9.98;;;;;;;4.99;100.00;100512.03;5093526;28;20507;-44
2023/11/09 05:09:58;;;;;;;19.48;9.77;;;;;;;5.11;100.00;100513.41;5093441;28;20090;-43
2023/11/09 05:12:27;;;;;;;19.08;9.85;;;;;;;4.98;100.00;100512.97;5093407;28;20489;-44
2023/11/09 05:14:57;;;;;;;17.63;9.82;;;;;;;4.84;100.00;100505.50;5093385;28;20052;-44
2023/11/09 05:17:25;;;;;;;20.55;10.40;;;;;;;4.91;100.00;100519.34;5093677;28;20048;-44
2023/11/09 05:19:57;;;;;;;19.38;10.32;;;;;;;5.03;100.00;100513.69;5093896;28;20105;-43
2023/11/09 05:22:26;;;;;;;16.65;9.18;;;;;;;4.99;100.00;100516.47;5093384;28;20056;-45
2023/11/09 05:24:55;;;;;;;16.73;9.98;;;;;;;5.09;100.00;100516.09;5093937;28;20040;-44
2023/11/09 05:27:24;;;;;;;15.27;9.38;;;;;;;5.25;100.00;100512.94;5093792;28;20052;-43
2023/11/09 05:29:52;;;;;;;20.67;9.80;;;;;;;5.29;100.00;100509.28;5093292;28;20097;-42
2023/11/09 05:32:22;;;;;;;18.88;8.85;;;;;;;4.82;100.00;100511.72;5092760;28;20530;-43
2023/11/09 05:34:51;;;;;;;15.88;9.50;;;;;;;4.80;100.00;100508.28;5092783;28;20056;-43
2023/11/09 05:37:20;;;;;;;18.48;9.82;;;;;;;4.75;100.00;100503.16;5092830;28;20055;-45
2023/11/09 05:39:49;;;;;;;18.65;9.98;;;;;;;4.74;100.00;100500.56;5092959;28;20052;-42
2023/11/09 05:42:18;;;;;;;17.10;9.95;;;;;;;4.77;100.00;100500.44;5092817;28;20512;-43
2023/11/09 05:44:46;;;;;;;18.23;9.75;;;;;;;4.87;100.00;100496.59;5093009;28;20048;-44
2023/11/09 05:47:14;;;;;;;17.30;9.30;;;;;;;4.94;100.00;100487.56;5093124;28;20151;-44
2023/11/09 05:49:44;;;;;;;17.73;10.13;;;;;;;5.09;100.00;100491.44;5092961;28;20048;-44
2023/11/09 05:52:14;;;;;;;17.95;10.13;;;;;;;5.13;100.00;100488.66;5092859;28;20047;-46
2023/11/09 05:54:44;;;;;;;17.13;9.38;;;;;;;5.15;100.00;100496.53;5092875;28;20150;-44
2023/11/09 05:57:13;;;;;;;17.55;9.82;;;;;;;5.00;100.00;100497.91;5092667;28;20044;-42
2023/11/09 05:59:41;;;;;;;15.13;9.13;;;;;;;5.01;100.00;100490.84;5091525;28;20101;-44
2023/11/09 06:02:11;;;;;;;17.25;9.57;;;;;;;5.01;100.00;100504.91;5092541;28;20055;-43
2023/11/09 06:04:41;;;;;;;16.20;9.68;;;;;;;4.96;100.00;100504.22;5092708;28;20446;-45
2023/11/09 06:07:11;;;;;;;18.77;10.23;;;;;;;4.99;100.00;100503.25;5092202;28;20144;-44
2023/11/09 06:09:40;;;;;;;16.08;9.50;;;;;;;5.05;100.00;100501.28;5092327;28;20055;-44
2023/11/09 06:12:09;;;;;;;20.20;10.00;;;;;;;5.17;100.00;100511.44;5092409;28;20496;-42
2023/11/09 06:14:38;;;;;;;20.08;9.90;;;;;;;5.27;100.00;100514.63;5092264;28;20056;-44
2023/11/09 06:17:06;;;;;;;16.90;9.80;;;;;;;5.17;100.00;100518.50;5091937;28;20050;-44
2023/11/09 06:19:35;;;;;;;15.90;9.63;;;;;;;5.16;100.00;100520.28;5092044;28;20040;-44
2023/11/09 06:22:03;;;;;;;16.83;9.60;;;;;;;5.22;100.00;100518.34;5091787;28;20052;-44
2023/11/09 06:24:33;;;;;;;16.90;10.02;;;;;;;5.40;100.00;100533.56;5091925;28;20048;-43
2023/11/09 06:27:01;;;;;;;17.85;10.85;;;;;;;5.54;100.00;100531.31;5091881;28;20050;-44
2023/11/09 06:29:30;;;;;;;18.95;10.18;;;;;;;5.59;100.00;100534.66;5091740;28;20044;-46
2023/11/09 06:31:58;;;;;;;18.55;10.18;;;;;;;5.77;100.00;100534.94;5092083;28;20055;-45
2023/11/09 06:34:27;;;;;;;18.67;10.35;;;;;;;5.92;100.00;100537.06;5091864;28;20146;-44
2023/11/09 06:36:55;;;;;;;17.40;10.27;;;;;;;5.75;100.00;100538.50;5091888;28;20040;-44
2023/11/09 06:39:25;;;;;;;16.83;9.75;;;;;;;5.89;100.00;100545.09;5092566;28;20097;-44
2023/11/09 06:41:55;;;;;;;17.88;10.57;;;;;;;5.88;100.00;100543.34;5092089;28;20048;-45
2023/11/09 06:44:24;;;;;;;16.85;9.80;;;;;;;5.99;100.00;100534.16;5091833;28;20048;-43
2023/11/09 06:46:52;;;;;;;17.58;10.43;;;;;;;6.07;100.00;100541.78;5091931;28;20048;-43
2023/11/09 06:49:21;;;;;;;15.73;9.65;;;;;;;6.06;100.00;100537.41;5089304;28;20044;-41
2023/11/09 06:51:49;;;;;;;16.95;9.98;;;;;;;6.21;100.00;100543.94;5080872;28;20094;-42
2023/11/09 06:54:17;;;;;;;18.10;9.60;;;;;;;6.33;100.00;100538.16;5091043;28;20044;-42
2023/11/09 06:56:44;;;;;;;16.85;9.85;;;;;;;6.21;100.00;100541.28;5090954;28;20083;-43
2023/11/09 06:59:14;;;;;;;18.27;11.07;;;;;;;6.36;100.00;100542.47;5091214;28;20050;-42
2023/11/09 07:01:43;;;;;;;17.58;10.07;;;;;;;6.28;100.00;100543.66;5090958;28;20048;-44
2023/11/09 07:04:11;;;;;;;14.80;9.02;;;;;;;6.44;100.00;100535.09;5091344;28;20412;-42
2023/11/09 07:06:40;;;;;;;16.00;9.30;;;;;;;6.59;100.00;100535.38;5090839;28;20044;-42
2023/11/09 07:09:09;;;;;;;15.75;9.15;;;;;;;6.68;100.00;100534.16;5091102;28;20052;-41
2023/11/09 07:11:38;;;;;;;14.95;8.93;;;;;;;6.77;100.00;100528.50;5091578;28;20496;-43
2023/11/09 07:14:06;;;;;;;18.65;9.23;;;;;;;6.82;100.00;100525.63;5091233;28;20059;-43
2023/11/09 07:16:38;;;;;;;15.10;8.57;;;;;;;6.80;100.00;100528.34;5091557;28;20374;-43
2023/11/09 07:19:06;;;;;;;13.63;8.32;;;;;;;6.98;100.00;100529.41;5091440;28;20159;-45
2023/11/09 07:21:35;;;;;;;16.20;9.88;;;;;;;7.24;100.00;100523.03;5095105;28;20502;-42
2023/11/09 07:24:04;;;;;;;14.70;9.13;;;;;;;7.28;100.00;100529.06;5095410;28;20192;-42
2023/11/09 07:26:33;;;;;;;17.02;9.18;;;;;;;7.26;100.00;100525.63;5095871;28;20127;-43
2023/11/09 07:29:03;;;;;;;14.55;8.63;;;;;;;7.34;100.00;100524.38;5095700;28;20040;-43
2023/11/09 07:31:30;;;;;;;17.27;9.48;;;;;;;7.46;100.00;100534.44;5095628;28;20082;-42
2023/11/09 07:34:00;;;;;;;18.23;8.98;;;;;;;7.64;100.00;100521.31;5095633;28;20413;-43
2023/11/09 07:36:29;;;;;;;15.88;8.77;;;;;;;7.61;100.00;100521.41;5093136;28;20059;-43
2023/11/09 07:38:58;;;;;;;14.13;8.98;;;;;;;7.69;100.00;100521.97;5086672;28;20045;-44
2023/11/09 07:41:29;;;;;;;15.63;9.25;;;;;;;7.80;100.00;100518.81;5074909;28;20089;-42
2023/11/09 07:43:58;;;;;;;17.45;8.55;;;;;;;7.80;100.00;100516.16;5075049;28;20048;-43
2023/11/09 07:46:26;;;;;;;15.35;9.00;;;;;;;7.91;100.00;100525.41;5074603;28;20045;-43
2023/11/09 07:49:00;;;;;;;13.93;9.18;;;;;;;8.03;100.00;100513.34;5074758;28;20458;-43
2023/11/09 07:51:29;;;;;;;14.23;8.68;;;;;;;8.15;100.00;100514.59;5074923;28;20060;-42
2023/11/09 07:53:59;;;;;;;16.20;9.15;;;;;;;8.31;100.00;100523.59;5074683;28;20055;-42
2023/11/09 07:56:28;;;;;;;16.40;9.38;;;;;;;8.47;100.00;100521.09;5074150;28;20044;-43
2023/11/09 07:58:56;;;;;;;14.77;9.02;;;;;;;8.17;100.00;100515.38;5073229;28;20084;-43
2023/11/09 08:01:25;;;;;;;14.82;8.77;;;;;;;8.30;100.00;100516.56;5074952;28;20135;-43
2023/11/09 08:03:57;;;;;;;17.52;9.20;;;;;;;8.42;100.00;100509.81;5074203;28;20055;-44
2023/11/09 08:06:26;;;;;;;15.00;8.77;;;;;;;8.41;100.00;100503.66;5091835;28;20134;-43
2023/11/09 08:08:56;;;;;;;17.75;8.07;;;;;;;8.54;100.00;100507.44;5094671;28;20119;-43
2023/11/09 08:11:26;;;;;;;16.27;9.02;;;;;;;8.71;100.00;100505.78;5094816;28;20040;-41
2023/11/09 08:13:54;;;;;;;15.52;8.52;;;;;;;8.82;100.00;100503.44;5094892;28;20106;-44
2023/11/09 08:16:22;;;;;;;14.90;8.48;;;;;;;8.97;100.00;100502.66;5094243;28;20051;-47
2023/11/09 08:18:55;;;;;;;17.00;8.05;;;;;;;9.10;100.00;100501.16;5094165;28;20051;-42
2023/11/09 08:21:25;;;;;;;14.13;8.67;;;;;;;9.28;100.00;100498.50;5092523;28;20046;-42
2023/11/09 08:23:54;;;;;;;14.00;8.32;;;;;;;9.21;100.00;100497.94;5092177;28;20355;-43
2023/11/09 08:26:24;;;;;;;14.57;8.00;;;;;;;9.28;100.00;100493.19;5092845;28;20365;-43
2023/11/09 08:28:53;;;;;;;13.75;7.97;;;;;;;9.31;100.00;100488.53;5094022;28;20131;-42
2023/11/09 08:31:21;;;;;;;13.88;7.90;;;;;;;9.35;100.00;100486.56;5093511;28;20047;-44
2023/11/09 08:33:50;;;;;;;14.13;7.28;;;;;;;9.57;100.00;100484.53;5094228;28;20162;-43
2023/11/09 08:36:19;;;;;;;13.13;7.10;;;;;;;9.77;100.00;100498.63;5093785;28;20044;-44
2023/11/09 08:38:47;;;;;;;11.27;6.50;;;;;;;9.87;100.00;100499.84;5094442;28;20127;-43
2023/11/09 08:41:15;;;;;;;10.40;6.45;;;;;;;9.96;100.00;100488.69;5093838;28;20492;-43
2023/11/09 08:43:48;;;;;;;11.05;6.40;;;;;;;9.91;100.00;100491.59;5094053;28;20131;-45
2023/11/09 08:46:16;;;;;;;10.38;6.25;;;;;;;10.07;100.00;100488.97;5094113;28;20058;-43
2023/11/09 08:48:45;;;;;;;11.77;5.82;;;;;;;10.08;100.00;100488.03;5093822;28;20051;-43
2023/11/09 08:51:13;;;;;;;10.85;6.25;;;;;;;10.01;100.00;100487.50;5093773;28;20102;-43
2023/11/09 08:53:42;;;;;;;12.23;6.80;;;;;;;10.18;100.00;100483.91;5093525;28;20044;-43
2023/11/09 08:56:11;;;;;;;11.30;6.28;;;;;;;10.26;100.00;100481.72;5093527;28;20075;-44
2023/11/09 08:58:43;;;;;;;11.88;6.53;;;;;;;10.40;100.00;100480.94;5094280;28;20055;-45
2023/11/09 09:01:17;;;;;;;9.95;6.32;;;;;;;10.49;100.00;100476.91;5094558;28;20051;-43
2023/11/09 09:03:49;;;;;;;10.20;5.75;;;;;;;10.51;100.00;100475.00;5093209;28;20408;-43
2023/11/09 09:06:18;;;;;;;11.25;5.82;;;;;;;10.52;100.00;100487.44;5093023;28;20120;-43
2023/11/09 09:08:47;;;;;;;10.05;5.85;;;;;;;10.44;100.00;100479.84;5093420;28;20051;-44
2023/11/09 09:11:18;;;;;;;9.40;5.30;;;;;;;10.58;100.00;100485.25;5093500;28;20048;-43
2023/11/09 09:13:46;;;;;;;10.25;6.03;;;;;;;10.64;100.00;100473.38;5093303;28;20113;-43
2023/11/09 09:16:17;;;;;;;10.63;5.75;;;;;;;10.75;100.00;100472.78;5093483;28;20076;-42
2023/11/09 09:18:46;;;;;;;10.00;5.75;;;;;;;10.74;100.00;100466.56;5093355;28;20055;-42
2023/11/09 09:21:15;;;;;;;9.13;5.10;;;;;;;10.79;100.00;100463.63;5093163;28;20050;-43
2023/11/09 09:23:44;;;;;;;8.45;4.78;;;;;;;10.93;100.00;100454.84;5093245;28;20055;-43
2023/11/09 09:26:12;;;;;;;9.90;5.20;;;;;;;11.00;100.00;100450.84;5092967;28;20064;-42
2023/11/09 09:28:47;;;;;;;8.93;5.47;;;;;;;11.07;100.00;100455.75;5092925;28;20494;-46
2023/11/09 09:31:19;;;;;;;8.38;5.30;;;;;;;11.18;100.00;100457.78;5092395;28;20044;-45
2023/11/09 09:34:07;;;;;;;8.77;5.10;;;;;;;11.12;100.00;100455.47;5092822;28;20048;-44
2023/11/09 09:36:37;;;;;;;10.60;5.40;;;;;;;11.18;100.00;100450.63;5092568;28;20054;-42
2023/11/09 09:39:09;;;;;;;11.77;5.47;;;;;;;11.24;100.00;100448.53;5092561;28;20066;-43
2023/11/09 09:41:49;;;;;;;10.60;4.85;;;;;;;11.38;100.00;100443.22;5091066;28;20101;-43
2023/11/09 09:44:19;;;;;;;11.13;5.28;;;;;;;11.46;100.00;100444.47;5091865;28;20051;-44
2023/11/09 09:46:53;;;;;;;9.20;4.70;;;;;;;11.56;100.00;100444.78;5092173;28;20044;-43
2023/11/09 09:49:22;;;;;;;7.45;4.40;;;;;;;11.61;100.00;100436.50;5092513;28;20487;-43
2023/11/09 09:51:52;;;;;;;9.02;4.13;;;;;;;11.71;100.00;100438.50;5092414;28;20489;-43
2023/11/09 09:54:21;;;;;;;9.77;4.32;;;;;;;11.81;100.00;100433.47;5092638;28;20082;-43
2023/11/09 09:56:51;;;;;;;9.38;4.10;;;;;;;11.95;100.00;100435.28;5092806;28;20064;-42
2023/11/09 09:59:19;;;;;;;8.68;3.47;;;;;;;11.91;100.00;100418.59;5092439;28;20067;-43
2023/11/09 10:01:50;;;;;;;6.47;3.03;;;;;;;12.03;100.00;100417.78;5092352;28;20051;-43
2023/11/09 10:04:20;;;;;;;8.13;3.10;;;;;;;12.13;100.00;100422.56;5092455;28;20040;-44
2023/11/09 10:06:51;;;;;;;6.60;3.15;;;;;;;12.09;100.00;100415.72;5092441;28;20477;-45
2023/11/09 10:09:24;;;;;;;5.85;2.97;;;;;;;12.12;100.00;100412.81;5092526;28;20500;-44
2023/11/09 10:11:54;;;;;;;7.20;2.80;;;;;;;12.19;100.00;100411.47;5092480;28;20051;-43
2023/11/09 10:14:24;;;;;;;6.47;2.97;;;;;;;12.28;100.00;100416.25;5092484;28;20515;-43
2023/11/09 10:16:54;;;;;;;6.97;2.80;;;;;;;12.36;100.00;100415.75;5092194;28;20055;-44
2023/11/09 10:19:22;;;;;;;6.97;2.78;;;;;;;12.39;100.00;100413.72;5092363;28;20075;-42
2023/11/09 10:21:51;;;;;;;6.18;3.05;;;;;;;12.53;100.00;100416.34;5092562;28;20052;-42
2023/11/09 10:24:23;;;;;;;6.78;2.92;;;;;;;12.59;100.00;100415.09;5092396;28;20135;-43
2023/11/09 10:26:55;;;;;;;6.60;2.72;;;;;;;12.63;100.00;100407.72;5091844;28;20057;-44
2023/11/09 10:29:25;;;;;;;5.13;2.72;;;;;;;12.65;100.00;100413.84;5092161;28;20509;-43
2023/11/09 10:31:57;;;;;;;7.85;2.67;;;;;;;12.65;100.00;100405.81;5092047;28;20052;-42
2023/11/09 10:34:26;;;;;;;5.95;2.38;;;;;;;12.73;100.00;100406.13;5092386;28;20401;-43
2023/11/09 10:36:55;;;;;;;6.40;2.67;;;;;;;12.79;100.00;100405.75;5092277;28;20084;-44
2023/11/09 10:39:23;;;;;;;5.97;2.67;;;;;;;12.85;100.00;100405.34;5092075;28;20139;-43
2023/11/09 10:41:54;;;;;;;4.75;2.70;;;;;;;12.83;100.00;100394.72;5091884;28;20079;-44
2023/11/09 10:44:28;;;;;;;6.23;2.70;;;;;;;12.87;100.00;100398.06;5091809;28;20081;-44
2023/11/09 10:47:01;;;;;;;4.90;2.50;;;;;;;12.97;100.00;100388.44;5092682;28;20204;-43
2023/11/09 10:49:37;;;;;;;5.50;2.83;;;;;;;13.01;100.00;100384.59;5091807;28;20040;-43
2023/11/09 10:52:08;;;;;;;7.88;2.85;;;;;;;12.94;100.00;100388.66;5092168;28;20051;-42
2023/11/09 10:54:38;;;;;;;3.90;2.42;;;;;;;12.86;100.00;100380.28;5091667;28;20059;-42
2023/11/09 10:57:09;;;;;;;5.78;2.45;;;;;;;13.02;100.00;100386.28;5091861;28;20062;-43
2023/11/09 10:59:40;;;;;;;6.22;2.45;;;;;;;13.05;100.00;100375.41;5092171;28;20040;-44
2023/11/09 11:02:18;;;;;;;5.30;2.67;;;;;;;13.01;100.00;100368.50;5092272;28;20044;-42
2023/11/09 11:04:51;;;;;;;5.68;2.45;;;;;;;13.02;100.00;100364.88;5091498;28;20127;-43
2023/11/09 11:07:21;;;;;;;4.07;2.30;;;;;;;13.09;100.00;100360.81;5091476;28;20044;-45
2023/11/09 11:09:51;;;;;;;5.95;2.15;;;;;;;13.11;100.00;100348.16;5091841;28;20142;-44
2023/11/09 11:12:23;;;;;;;6.60;2.22;;;;;;;13.06;100.00;100342.28;5091658;28;20117;-43
2023/11/09 11:14:53;;;;;;;3.90;1.60;;;;;;;13.03;100.00;100352.38;5091779;28;20092;-43
2023/11/09 11:17:41;;;;;;;3.88;1.67;;;;;;;12.98;100.00;100341.97;5091668;28;20066;-44
2023/11/09 11:20:42;;;;;;;3.70;1.70;;;;;;;13.06;100.00;100334.25;5091807;28;20420;-43
2023/11/09 11:23:30;;;;;;;3.88;1.70;;;;;;;13.13;100.00;100329.34;5091739;28;20048;-44
2023/11/09 11:26:04;;;;;;;3.83;1.70;;;;;;;13.10;100.00;100333.06;5091689;28;20055;-43
2023/11/09 11:28:36;;;;;;;6.07;1.65;;;;;;;13.23;100.00;100335.81;5092047;28;20052;-43
2023/11/09 11:31:04;;;;;;;4.40;1.80;;;;;;;13.28;100.00;100330.97;5091795;28;20086;-43